Filia Ariea — PIET — position and weather

sailwx.info

Track history (hours):
 
Tides and Currents Weather Stations Pressure Air Temp Water Temp Dewpoint Dewpoint Depression Visibility Wind Speed Wind Dir Waves Ship Positions

Filia Ariea

Last reported at 2016-Sep-28 03:33 UTC. Time now 2016-Sep-28 17:09 UTC.
Position N 51°37' W 003°55'.

Length 90 m; draft 3.4 m.

Type: Ship. MMSI: 244662000.

Date/timePositionNaut miles runAvg speedWind from/ knotsBaromVisibWave heightAir tempDewpointWater temp
2016-Sep-28 03:33N 51°37' W 003°55'0 0.0
2016-Sep-28 01:26N 51°37' W 003°55'0 0.0
2016-Sep-27 23:25N 51°37' W 003°55'48 1.2
2016-Sep-26 08:34N 50°59' W 004°42'6911.1
2016-Sep-26 02:21N 50°07' W 005°52'34 7.2
2016-Sep-25 21:34N 50°07' W 004°58'4 0.2
2016-Sep-25 04:25N 50°11' W 004°57'0 0.0
2016-Sep-25 00:26N 50°11' W 004°57'12 6.3
2016-Sep-24 22:33N 50°10' W 004°38'1010.4
2016-Sep-24 21:34N 50°10' W 004°22'2110.6
2016-Sep-24 19:34N 50°10' W 003°49'1211.6
2016-Sep-24 18:34N 50°11' W 003°31'1211.6
2016-Sep-24 17:34N 50°13' W 003°13'1111.4
2016-Sep-24 16:33N 50°14' W 002°55'2110.4
2016-Sep-24 14:34N 50°18' W 002°23'4010.0
2016-Sep-24 10:30N 50°25' W 001°21'1212.3
2016-Sep-24 09:30N 50°26' W 001°01'8311.9
2016-Sep-24 02:28N 50°51' E 001°04'1112.0
2016-Sep-24 01:33N 50°58' E 001°17'1413.7
2016-Sep-24 00:33N 51°07' E 001°34'9810.9
2016-Sep-23 15:33N 52°05' E 003°42'2110.4
2016-Sep-23 13:33N 52°08' E 004°15'36 9.0
2016-Sep-23 09:33N 52°43' E 004°30'31 9.6
2016-Sep-23 06:21N 53°13' E 004°29'3311.8
2016-Sep-23 03:32N 53°43' E 004°55'1111.7
2016-Sep-23 02:33N 53°50' E 005°10'1111.5
2016-Sep-23 01:33N 53°56' E 005°26'1111.0
2016-Sep-23 00:33N 54°03' E 005°41'1010.1
2016-Sep-22 23:33N 54°12' E 005°50'11810.6
2016-Sep-22 12:28N 55°27' E 008°27'0 0.0
2016-Sep-22 04:31N 55°27' E 008°27'4 3.7
2016-Sep-22 03:33N 55°29' E 008°21'26 8.6
2016-Sep-22 00:33N 55°11' E 007°48'8 8.1
2016-Sep-21 23:34N 55°05' E 007°38'8 8.5
2016-Sep-21 22:33N 54°60' E 007°27'112 8.6
2016-Sep-21 09:33N 53°44' E 005°05'4711.9
2016-Sep-21 05:34N 53°01' E 004°30'2311.1
2016-Sep-21 03:32N 52°39' E 004°21'1010.0
2016-Sep-21 02:33N 52°30' E 004°22'36 4.0
2016-Sep-20 17:33N 51°54' E 004°26'0 0.0
2016-Sep-20 14:26N 51°54' E 004°26'0 0.0
2016-Sep-20 13:32N 51°54' E 004°26'0 0.0
2016-Sep-20 10:33N 51°54' E 004°26'0 0.0
2016-Sep-20 08:30N 51°54' E 004°26'0 0.0
2016-Sep-20 07:32N 51°54' E 004°26'0 0.0
2016-Sep-20 06:32N 51°54' E 004°26'0 0.0
2016-Sep-20 02:24N 51°54' E 004°26'0 0.1
2016-Sep-19 23:33N 51°54' E 004°26'47 9.2
2016-Sep-19 18:29N 51°46' E 003°11'2412.6
2016-Sep-19 16:33N 51°30' E 002°42'2713.6
2016-Sep-19 14:33N 51°14' E 002°07'1514.4
2016-Sep-19 13:32N 51°06' E 001°47'9012.3
2016-Sep-19 06:14N 50°18' W 000°13'  
Track history (hours):
 
Tides and Currents Weather Stations Pressure Air Temp Water Temp Dewpoint Dewpoint Depression Visibility Wind Speed Wind Dir Waves Ship Positions

Filia Ariea

Last reported at 2016-Sep-28 03:33 UTC. Time now 2016-Sep-28 17:09 UTC.
Position N 51°37' W 003°55'.

Length 90 m; draft 3.4 m.

Type: Ship. MMSI: 244662000.

Date/timePositionNaut miles runAvg speedWind from/ knotsBaromVisibWave heightAir tempDewpointWater temp
2016-Sep-28 03:33N 51°37' W 003°55'0 0.0
2016-Sep-28 01:26N 51°37' W 003°55'0 0.0
2016-Sep-27 23:25N 51°37' W 003°55'48 1.2
2016-Sep-26 08:34N 50°59' W 004°42'6911.1
2016-Sep-26 02:21N 50°07' W 005°52'34 7.2
2016-Sep-25 21:34N 50°07' W 004°58'4 0.2
2016-Sep-25 04:25N 50°11' W 004°57'0 0.0
2016-Sep-25 00:26N 50°11' W 004°57'12 6.3
2016-Sep-24 22:33N 50°10' W 004°38'1010.4
2016-Sep-24 21:34N 50°10' W 004°22'2110.6
2016-Sep-24 19:34N 50°10' W 003°49'1211.6
2016-Sep-24 18:34N 50°11' W 003°31'1211.6
2016-Sep-24 17:34N 50°13' W 003°13'1111.4
2016-Sep-24 16:33N 50°14' W 002°55'2110.4
2016-Sep-24 14:34N 50°18' W 002°23'4010.0
2016-Sep-24 10:30N 50°25' W 001°21'1212.3
2016-Sep-24 09:30N 50°26' W 001°01'8311.9
2016-Sep-24 02:28N 50°51' E 001°04'1112.0
2016-Sep-24 01:33N 50°58' E 001°17'1413.7
2016-Sep-24 00:33N 51°07' E 001°34'9810.9
2016-Sep-23 15:33N 52°05' E 003°42'2110.4
2016-Sep-23 13:33N 52°08' E 004°15'36 9.0
2016-Sep-23 09:33N 52°43' E 004°30'31 9.6
2016-Sep-23 06:21N 53°13' E 004°29'3311.8
2016-Sep-23 03:32N 53°43' E 004°55'1111.7
2016-Sep-23 02:33N 53°50' E 005°10'1111.5
2016-Sep-23 01:33N 53°56' E 005°26'1111.0
2016-Sep-23 00:33N 54°03' E 005°41'1010.1
2016-Sep-22 23:33N 54°12' E 005°50'11810.6
2016-Sep-22 12:28N 55°27' E 008°27'0 0.0
2016-Sep-22 04:31N 55°27' E 008°27'4 3.7
2016-Sep-22 03:33N 55°29' E 008°21'26 8.6
2016-Sep-22 00:33N 55°11' E 007°48'8 8.1
2016-Sep-21 23:34N 55°05' E 007°38'8 8.5
2016-Sep-21 22:33N 54°60' E 007°27'112 8.6
2016-Sep-21 09:33N 53°44' E 005°05'4711.9
2016-Sep-21 05:34N 53°01' E 004°30'2311.1
2016-Sep-21 03:32N 52°39' E 004°21'1010.0
2016-Sep-21 02:33N 52°30' E 004°22'36 4.0
2016-Sep-20 17:33N 51°54' E 004°26'0 0.0
2016-Sep-20 14:26N 51°54' E 004°26'0 0.0
2016-Sep-20 13:32N 51°54' E 004°26'0 0.0
2016-Sep-20 10:33N 51°54' E 004°26'0 0.0
2016-Sep-20 08:30N 51°54' E 004°26'0 0.0
2016-Sep-20 07:32N 51°54' E 004°26'0 0.0
2016-Sep-20 06:32N 51°54' E 004°26'0 0.0
2016-Sep-20 02:24N 51°54' E 004°26'0 0.1
2016-Sep-19 23:33N 51°54' E 004°26'47 9.2
2016-Sep-19 18:29N 51°46' E 003°11'2412.6
2016-Sep-19 16:33N 51°30' E 002°42'2713.6
2016-Sep-19 14:33N 51°14' E 002°07'1514.4
2016-Sep-19 13:32N 51°06' E 001°47'9012.3
2016-Sep-19 06:14N 50°18' W 000°13'  

Dump ship's entire track history